Time;durP1;ratioP1;P1;durP2;ratioP2;P2;SDS_P1;SDS_P2;PMS_P1;PMS_P2;Temp;Humidity;BMP_temperature;BMP_pressure;BME280_temperature;BME280_humidity;BME280_pressure;Samples;Min_cycle;Max_cycle;Signal;HPM_P1;HPM_P2
2022/11/14 00:02:24;;;;;;;17.00;14.90;;;10.30;59.80;;;;;;5023506;28;20194;-60
2022/11/14 00:04:49;;;;;;;18.27;15.03;;;10.30;59.60;;;;;;5022457;28;20193;-59
2022/11/14 00:07:15;;;;;;;16.13;14.43;;;10.20;60.00;;;;;;5025940;28;20223;-60
2022/11/14 00:09:44;;;;;;;16.50;14.30;;;10.20;60.00;;;;;;5030864;28;20190;-59
2022/11/14 00:12:10;;;;;;;17.10;15.00;;;10.20;59.80;;;;;;5029898;28;20229;-59
2022/11/14 00:14:36;;;;;;;17.33;15.43;;;10.30;59.80;;;;;;5028418;28;20509;-59
2022/11/14 00:17:03;;;;;;;17.60;15.47;;;10.30;59.50;;;;;;5027943;28;20441;-60
2022/11/14 00:19:30;;;;;;;19.87;14.97;;;10.20;59.30;;;;;;5024637;28;20969;-59
2022/11/14 00:21:55;;;;;;;18.77;13.87;;;10.30;59.20;;;;;;5031209;28;20491;-59
2022/11/14 00:24:21;;;;;;;20.80;15.17;;;10.30;59.10;;;;;;5028112;28;20440;-59
2022/11/14 00:26:46;;;;;;;20.27;16.23;;;10.20;58.90;;;;;;5024833;28;20193;-57
2022/11/14 00:29:14;;;;;;;19.03;15.50;;;10.20;59.10;;;;;;5027831;28;20657;-59
2022/11/14 00:31:40;;;;;;;17.50;15.10;;;10.10;59.10;;;;;;5027360;28;20201;-59
2022/11/14 00:34:06;;;;;;;19.03;16.37;;;10.00;59.40;;;;;;5029644;28;20791;-59
2022/11/14 00:36:32;;;;;;;16.33;14.73;;;10.00;59.50;;;;;;5024299;28;20464;-59
2022/11/14 00:38:58;;;;;;;18.33;15.30;;;10.00;59.60;;;;;;5027057;28;20475;-59
2022/11/14 00:41:24;;;;;;;18.80;15.00;;;10.00;59.80;;;;;;5026943;28;20446;-60
2022/11/14 00:43:49;;;;;;;19.43;14.13;;;10.00;59.80;;;;;;5030485;28;20197;-59
2022/11/14 00:46:15;;;;;;;17.77;14.90;;;10.10;59.70;;;;;;5025696;28;20197;-59
2022/11/14 00:48:41;;;;;;;18.10;15.20;;;10.10;59.50;;;;;;5024074;28;20590;-59
2022/11/14 00:51:07;;;;;;;15.50;13.90;;;10.10;59.50;;;;;;5026598;28;20466;-59
2022/11/14 00:53:32;;;;;;;19.63;14.10;;;10.10;59.50;;;;;;5032145;28;20224;-59
2022/11/14 00:55:58;;;;;;;16.43;14.60;;;10.10;59.60;;;;;;5031816;28;20193;-60
2022/11/14 00:58:24;;;;;;;17.83;13.97;;;10.10;59.50;;;;;;5029644;28;20208;-60
2022/11/14 01:00:50;;;;;;;15.53;13.93;;;10.10;59.30;;;;;;5030027;28;20699;-59
2022/11/14 01:03:16;;;;;;;17.70;14.80;;;10.00;59.20;;;;;;5030604;28;20198;-60
2022/11/14 01:05:45;;;;;;;16.03;13.93;;;10.00;59.30;;;;;;5030958;28;20927;-59
2022/11/14 01:08:12;;;;;;;16.33;14.63;;;10.00;59.40;;;;;;5028854;28;20957;-59
2022/11/14 01:10:42;;;;;;;15.60;13.80;;;9.90;60.30;;;;;;5027752;28;20801;-59
2022/11/14 01:13:09;;;;;;;16.20;14.53;;;9.90;60.30;;;;;;5030250;28;20492;-59
2022/11/14 01:15:43;;;;;;;16.07;14.20;;;9.90;60.10;;;;;;5028682;28;20858;-60
2022/11/14 01:18:10;;;;;;;15.27;13.20;;;10.00;59.10;;;;;;5030449;28;20898;-60
2022/11/14 01:20:43;;;;;;;14.87;13.27;;;9.90;60.00;;;;;;5027484;28;20475;-59
2022/11/14 01:23:10;;;;;;;15.80;13.43;;;9.90;60.20;;;;;;5027194;28;20447;-60
2022/11/14 01:25:38;;;;;;;15.73;13.43;;;9.90;60.40;;;;;;5028883;28;20498;-60
2022/11/14 01:28:16;;;;;;;17.60;13.20;;;9.90;60.70;;;;;;5027265;28;20440;-59
2022/11/14 01:30:42;;;;;;;15.70;13.60;;;9.90;60.90;;;;;;5029423;28;20864;-59
2022/11/14 01:33:07;;;;;;;16.93;12.67;;;9.90;60.60;;;;;;5029504;28;20523;-59
2022/11/14 01:35:35;;;;;;;12.93;11.53;;;9.90;60.10;;;;;;5024632;28;20483;-59
2022/11/14 01:38:03;;;;;;;14.50;12.90;;;9.90;59.90;;;;;;5028837;28;20283;-60
2022/11/14 01:40:28;;;;;;;15.80;13.63;;;9.90;59.80;;;;;;5028385;28;20455;-60
2022/11/14 01:43:15;;;;;;;15.70;13.60;;;9.90;59.70;;;;;;5026812;28;20805;-59
2022/11/14 01:45:50;;;;;;;17.37;15.30;;;9.80;59.30;;;;;;5027171;28;20189;-59
2022/11/14 01:48:26;;;;;;;16.50;14.73;;;9.80;59.00;;;;;;5028124;28;20454;-59
2022/11/14 01:51:04;;;;;;;17.90;14.70;;;9.70;58.40;;;;;;5019894;28;20497;-59
2022/11/14 01:53:30;;;;;;;16.90;15.10;;;9.70;58.40;;;;;;5025105;28;20502;-58
2022/11/14 01:56:00;;;;;;;19.63;14.47;;;9.70;58.50;;;;;;5025907;28;20460;-60
2022/11/14 01:58:27;;;;;;;16.73;14.97;;;9.70;58.50;;;;;;5025357;28;20939;-60
2022/11/14 02:00:53;;;;;;;18.27;15.30;;;9.60;58.40;;;;;;5023912;28;21430;-60
2022/11/14 02:03:19;;;;;;;20.80;16.30;;;9.60;58.40;;;;;;5020671;28;20444;-59
2022/11/14 02:05:46;;;;;;;16.63;14.67;;;9.60;58.40;;;;;;5021852;28;20506;-60
2022/11/14 02:08:15;;;;;;;16.67;13.57;;;9.60;58.30;;;;;;5021218;28;20190;-59
2022/11/14 02:10:41;;;;;;;15.37;12.53;;;9.50;58.50;;;;;;5024990;28;20428;-59
2022/11/14 02:13:07;;;;;;;17.70;14.50;;;9.40;58.90;;;;;;5024416;28;20514;-59
2022/11/14 02:15:33;;;;;;;15.03;12.07;;;9.40;58.90;;;;;;5026949;28;20574;-60
2022/11/14 02:18:00;;;;;;;16.33;11.53;;;9.40;59.00;;;;;;5019539;28;20451;-59
2022/11/14 02:20:28;;;;;;;13.10;11.10;;;9.20;59.10;;;;;;5023210;28;20456;-59
2022/11/14 02:22:54;;;;;;;14.40;11.43;;;9.20;59.50;;;;;;5023097;28;20487;-60
2022/11/14 02:25:20;;;;;;;15.57;12.10;;;9.20;59.80;;;;;;5026535;28;20890;-59
2022/11/14 02:27:46;;;;;;;16.03;12.33;;;9.10;59.90;;;;;;5022336;28;20460;-59
2022/11/14 02:30:15;;;;;;;14.80;11.20;;;9.20;60.10;;;;;;5021597;28;20488;-59
2022/11/14 02:32:40;;;;;;;15.03;11.73;;;9.10;60.40;;;;;;5020667;28;20225;-60
2022/11/14 02:35:06;;;;;;;14.63;12.67;;;9.20;60.50;;;;;;5021656;28;20804;-60
2022/11/14 02:37:32;;;;;;;16.10;12.23;;;9.10;60.70;;;;;;5028708;28;20667;-59
2022/11/14 02:39:58;;;;;;;14.37;12.30;;;9.10;60.80;;;;;;5027063;28;20449;-59
2022/11/14 02:42:23;;;;;;;14.73;11.80;;;9.10;61.20;;;;;;5030487;28;20189;-59
2022/11/14 02:44:49;;;;;;;14.07;12.37;;;9.10;61.20;;;;;;5027847;28;20208;-59
2022/11/14 02:47:14;;;;;;;13.53;11.50;;;8.80;62.20;;;;;;5027309;28;20657;-60
2022/11/14 02:49:40;;;;;;;14.07;12.13;;;8.70;63.10;;;;;;5029246;28;20203;-59
2022/11/14 02:52:05;;;;;;;15.27;11.43;;;8.80;63.00;;;;;;5030347;28;20583;-59
2022/11/14 02:54:31;;;;;;;15.63;12.23;;;8.90;62.60;;;;;;5027898;28;20200;-61
2022/11/14 02:56:57;;;;;;;15.10;12.90;;;9.00;62.20;;;;;;5035154;28;20610;-59
2022/11/14 02:59:22;;;;;;;20.50;15.20;;;9.10;61.70;;;;;;5026547;28;20208;-59
2022/11/14 03:01:48;;;;;;;17.07;13.93;;;9.10;61.10;;;;;;5028392;28;20564;-59
2022/11/14 03:04:13;;;;;;;15.40;12.10;;;9.10;60.40;;;;;;5027912;28;20204;-59
2022/11/14 03:06:39;;;;;;;13.57;12.00;;;9.00;60.30;;;;;;5026845;28;20189;-59
2022/11/14 03:09:04;;;;;;;18.07;14.13;;;9.00;60.30;;;;;;5025073;28;20189;-59
2022/11/14 03:11:30;;;;;;;18.17;13.30;;;9.00;60.60;;;;;;5026644;28;20684;-59
2022/11/14 03:13:56;;;;;;;16.70;12.93;;;8.90;61.20;;;;;;5025466;28;20221;-59
2022/11/14 03:16:21;;;;;;;16.97;13.33;;;8.90;61.50;;;;;;5027357;28;20192;-59
2022/11/14 03:18:47;;;;;;;20.17;13.23;;;9.00;61.50;;;;;;5027431;28;20259;-59
2022/11/14 03:21:18;;;;;;;23.10;13.87;;;9.00;61.30;;;;;;5029206;28;20312;-60
2022/11/14 03:23:44;;;;;;;18.50;12.87;;;9.10;61.50;;;;;;5027695;28;20186;-59
2022/11/14 03:26:12;;;;;;;19.23;13.47;;;9.00;61.80;;;;;;5023634;28;20794;-59
2022/11/14 03:28:38;;;;;;;18.47;13.00;;;9.00;61.90;;;;;;5016925;28;20546;-59
2022/11/14 03:31:05;;;;;;;16.80;12.73;;;9.00;61.80;;;;;;5031389;28;20443;-59
2022/11/14 03:33:31;;;;;;;15.27;12.27;;;9.10;61.90;;;;;;5027959;28;20487;-59
2022/11/14 03:35:57;;;;;;;15.10;13.00;;;9.10;61.70;;;;;;5028223;28;20453;-59
2022/11/14 03:38:22;;;;;;;21.63;13.17;;;9.10;61.60;;;;;;5025637;28;20990;-59
2022/11/14 03:40:49;;;;;;;20.23;12.53;;;9.10;61.30;;;;;;5027316;28;20185;-60
2022/11/14 03:43:15;;;;;;;22.37;14.70;;;9.10;61.30;;;;;;5028472;28;20301;-59
2022/11/14 03:45:41;;;;;;;20.67;13.60;;;9.10;61.00;;;;;;5031151;28;20530;-60
2022/11/14 03:48:07;;;;;;;15.90;13.87;;;9.10;61.60;;;;;;5033617;28;20567;-59
2022/11/14 03:50:33;;;;;;;46.67;11.60;;;9.00;60.90;;;;;;5031605;28;20435;-59
2022/11/14 03:52:58;;;;;;;39.93;13.43;;;8.90;61.20;;;;;;5031919;28;20591;-59
2022/11/14 03:55:24;;;;;;;23.90;12.33;;;8.60;61.60;;;;;;5028754;28;20246;-59
2022/11/14 03:57:50;;;;;;;24.57;11.07;;;8.10;63.30;;;;;;5030241;28;20201;-59
2022/11/14 04:00:16;;;;;;;16.90;10.50;;;7.90;64.90;;;;;;5030776;28;20197;-59
2022/11/14 04:02:41;;;;;;;13.40;10.90;;;7.40;65.80;;;;;;5032007;28;20320;-59
2022/11/14 04:05:07;;;;;;;18.57;11.50;;;7.20;66.80;;;;;;5029391;28;20516;-59
2022/11/14 04:07:33;;;;;;;25.87;11.50;;;7.00;68.60;;;;;;5033073;28;20660;-60
2022/11/14 04:09:58;;;;;;;15.80;12.10;;;7.20;68.60;;;;;;5029838;28;20440;-59
2022/11/14 04:12:24;;;;;;;21.73;11.13;;;7.30;68.50;;;;;;5030702;28;20855;-59
2022/11/14 04:14:49;;;;;;;20.10;12.33;;;7.30;68.00;;;;;;5029269;28;21160;-59
2022/11/14 04:17:15;;;;;;;14.97;11.87;;;7.20;68.40;;;;;;5032007;28;20560;-60
2022/11/14 04:19:41;;;;;;;15.83;11.67;;;7.30;68.90;;;;;;5030680;28;20258;-59
2022/11/14 04:22:06;;;;;;;13.93;10.97;;;7.50;68.10;;;;;;5031431;28;20243;-59
2022/11/14 04:24:32;;;;;;;11.83;10.17;;;7.70;67.60;;;;;;5030806;28;20223;-59
2022/11/14 04:26:58;;;;;;;14.90;11.10;;;7.80;66.70;;;;;;5033023;28;20204;-59
2022/11/14 04:29:23;;;;;;;14.30;11.13;;;8.00;66.40;;;;;;5028283;28;20229;-59
2022/11/14 04:31:49;;;;;;;17.30;11.83;;;8.10;66.10;;;;;;5030374;28;20200;-60
2022/11/14 04:34:14;;;;;;;16.77;11.97;;;8.30;65.60;;;;;;5030111;28;20215;-60
2022/11/14 04:36:40;;;;;;;16.20;12.10;;;8.40;64.90;;;;;;5023796;28;20197;-59
2022/11/14 04:39:06;;;;;;;12.30;11.00;;;8.40;64.20;;;;;;5030087;28;20220;-59
2022/11/14 04:41:31;;;;;;;15.50;11.53;;;8.30;64.20;;;;;;5029748;28;20201;-59
2022/11/14 04:43:57;;;;;;;15.77;11.77;;;8.40;64.40;;;;;;5026059;28;20197;-59
2022/11/14 04:46:22;;;;;;;13.53;11.90;;;8.30;64.20;;;;;;5031151;28;20280;-59
2022/11/14 04:48:48;;;;;;;14.10;12.53;;;8.30;64.60;;;;;;5025385;28;20193;-59
2022/11/14 04:51:14;;;;;;;14.47;11.63;;;8.30;64.90;;;;;;5028427;28;20570;-59
2022/11/14 04:53:39;;;;;;;14.33;12.23;;;8.30;64.40;;;;;;5027896;28;20303;-59
2022/11/14 04:56:05;;;;;;;18.80;13.63;;;8.40;64.40;;;;;;5025065;28;20295;-59
2022/11/14 04:58:30;;;;;;;17.33;12.83;;;8.30;64.30;;;;;;5028945;28;20194;-59
2022/11/14 05:00:56;;;;;;;18.17;11.63;;;8.20;64.40;;;;;;5025175;28;20289;-60
2022/11/14 05:03:23;;;;;;;15.70;10.83;;;8.10;64.30;;;;;;5024935;28;20703;-59
2022/11/14 05:05:49;;;;;;;16.50;12.40;;;7.90;65.60;;;;;;5028654;28;20194;-59
2022/11/14 05:08:14;;;;;;;13.37;11.30;;;8.00;65.90;;;;;;5026974;28;20444;-59
2022/11/14 05:10:44;;;;;;;13.30;11.37;;;8.20;65.50;;;;;;5028788;28;20804;-60
2022/11/14 05:13:10;;;;;;;13.50;11.47;;;8.30;64.90;;;;;;5026654;28;20239;-59
2022/11/14 05:15:36;;;;;;;14.63;11.67;;;8.40;64.30;;;;;;5026042;28;20471;-59
2022/11/14 05:18:02;;;;;;;17.17;11.40;;;8.40;63.80;;;;;;5022452;28;20930;-59
2022/11/14 05:20:28;;;;;;;11.67;10.17;;;8.40;63.40;;;;;;5025942;28;20201;-60
2022/11/14 05:22:55;;;;;;;15.80;11.90;;;8.30;63.60;;;;;;5025872;28;20494;-59
2022/11/14 05:25:21;;;;;;;14.83;11.70;;;8.30;63.60;;;;;;5023766;28;20649;-59
2022/11/14 05:27:46;;;;;;;16.30;12.33;;;8.30;63.50;;;;;;5022079;28;20847;-59
2022/11/14 05:30:13;;;;;;;14.70;11.10;;;8.30;63.40;;;;;;5026067;28;20454;-60
2022/11/14 05:32:39;;;;;;;16.70;12.10;;;8.20;63.30;;;;;;5025104;28;20338;-59
2022/11/14 05:35:05;;;;;;;20.93;13.87;;;7.80;64.40;;;;;;5027695;28;20487;-59
2022/11/14 05:37:31;;;;;;;20.17;14.13;;;7.70;65.60;;;;;;5026952;28;20200;-60
2022/11/14 05:39:56;;;;;;;16.60;12.27;;;7.80;65.80;;;;;;5026448;28;20448;-59
2022/11/14 05:42:22;;;;;;;19.47;14.40;;;7.90;65.10;;;;;;5028496;28;20206;-59
2022/11/14 05:44:47;;;;;;;17.30;13.87;;;8.10;64.60;;;;;;5024906;28;20196;-60
2022/11/14 05:47:13;;;;;;;15.17;12.03;;;8.20;64.00;;;;;;5028788;28;20232;-59
2022/11/14 05:49:38;;;;;;;13.97;12.47;;;8.20;63.30;;;;;;5029832;28;20193;-59
2022/11/14 05:52:04;;;;;;;17.83;12.30;;;8.20;63.50;;;;;;5027929;28;20460;-59
2022/11/14 05:54:29;;;;;;;14.87;12.80;;;8.30;63.50;;;;;;5028327;28;20198;-60
2022/11/14 05:56:55;;;;;;;15.50;12.20;;;8.30;63.40;;;;;;5029357;28;20193;-59
2022/11/14 05:59:21;;;;;;;16.07;12.20;;;8.30;63.10;;;;;;5023854;28;20656;-60
2022/11/14 06:01:46;;;;;;;28.97;16.40;;;8.20;62.40;;;;;;5031348;28;20194;-59
2022/11/14 06:04:13;;;;;;;26.60;16.50;;;8.20;63.10;;;;;;5029063;28;20280;-59
2022/11/14 06:06:39;;;;;;;20.33;13.47;;;8.10;63.50;;;;;;5044483;28;20272;-59
2022/11/14 06:09:05;;;;;;;24.17;14.07;;;8.20;63.60;;;;;;5029176;28;20543;-60
2022/11/14 06:11:31;;;;;;;16.87;13.20;;;8.30;63.40;;;;;;5029504;28;20653;-59
2022/11/14 06:13:56;;;;;;;17.20;10.37;;;8.30;63.70;;;;;;5028864;28;20485;-58
2022/11/14 06:16:22;;;;;;;15.33;11.87;;;8.40;65.90;;;;;;5024964;28;20208;-59
2022/11/14 06:18:48;;;;;;;19.20;12.93;;;8.70;68.20;;;;;;5025189;28;20201;-59
2022/11/14 06:21:18;;;;;;;15.13;11.70;;;9.10;68.50;;;;;;5026264;28;20237;-59
2022/11/14 06:23:44;;;;;;;13.20;11.10;;;9.50;68.20;;;;;;5028056;28;20202;-59
2022/11/14 06:26:31;;;;;;;81.97;12.80;;;9.80;67.40;;;;;;5024444;28;20519;-59
2022/11/14 06:28:57;;;;;;;12.30;10.93;;;10.10;65.70;;;;;;5027555;28;20791;-60
2022/11/14 06:31:24;;;;;;;14.00;11.20;;;10.30;64.00;;;;;;5022155;28;20443;-59
2022/11/14 06:33:50;;;;;;;11.33;10.20;;;10.40;62.70;;;;;;5025375;28;20964;-59
2022/11/14 06:36:16;;;;;;;11.90;10.70;;;10.50;60.80;;;;;;5028793;28;20464;-59
2022/11/14 06:38:43;;;;;;;11.87;10.60;;;10.60;60.10;;;;;;5030549;28;20436;-60
2022/11/14 06:41:14;;;;;;;12.90;10.90;;;10.70;59.50;;;;;;5031087;28;20439;-59
2022/11/14 06:43:43;;;;;;;12.40;10.50;;;10.70;58.50;;;;;;5028837;28;20501;-59
2022/11/14 06:46:10;;;;;;;11.73;10.50;;;10.80;58.10;;;;;;5029129;28;20678;-59
2022/11/14 06:48:36;;;;;;;12.73;9.97;;;10.90;57.90;;;;;;5030214;28;20471;-59
2022/11/14 06:51:03;;;;;;;12.20;10.20;;;10.80;57.90;;;;;;5028491;28;20497;-59
2022/11/14 06:53:31;;;;;;;10.10;9.10;;;10.90;57.90;;;;;;5025534;28;20494;-59
2022/11/14 06:56:04;;;;;;;13.83;10.33;;;11.00;57.80;;;;;;5031797;28;20806;-60
2022/11/14 06:58:32;;;;;;;9.87;8.73;;;11.20;57.60;;;;;;5025063;28;20448;-60
2022/11/14 07:01:15;;;;;;;9.10;8.20;;;11.30;57.30;;;;;;5030777;28;20443;-59
2022/11/14 07:03:42;;;;;;;9.93;8.87;;;11.40;56.40;;;;;;5024168;28;20546;-60
2022/11/14 07:06:10;;;;;;;10.00;9.00;;;11.60;56.80;;;;;;5029072;28;20452;-60
2022/11/14 07:08:36;;;;;;;9.77;8.77;;;11.60;55.80;;;;;;5027342;28;20440;-60
2022/11/14 07:11:24;;;;;;;9.80;8.80;;;11.80;55.50;;;;;;5028909;28;20447;-59
2022/11/14 07:13:53;;;;;;;10.60;8.90;;;11.70;54.90;;;;;;5028162;28;20935;-59
2022/11/14 07:16:22;;;;;;;11.90;9.93;;;11.60;54.90;;;;;;5028333;28;20497;-59
2022/11/14 07:18:47;;;;;;;10.60;9.37;;;11.60;54.90;;;;;;5027778;28;20432;-60
2022/11/14 07:21:13;;;;;;;12.87;10.40;;;11.50;55.00;;;;;;5031997;28;20486;-59
2022/11/14 07:23:39;;;;;;;11.23;10.10;;;11.60;55.20;;;;;;5029771;28;20241;-60
2022/11/14 07:26:07;;;;;;;11.07;9.93;;;11.70;54.80;;;;;;5033597;28;20197;-60
2022/11/14 07:28:41;;;;;;;11.10;9.90;;;11.70;54.00;;;;;;5027477;28;20441;-58
2022/11/14 07:31:11;;;;;;;11.50;10.30;;;11.70;54.10;;;;;;5033396;28;20443;-58
2022/11/14 07:33:36;;;;;;;11.40;9.63;;;11.70;54.60;;;;;;5032364;28;20492;-58
2022/11/14 07:36:02;;;;;;;11.13;10.03;;;11.70;54.80;;;;;;5027487;28;20811;-58
2022/11/14 07:38:30;;;;;;;11.70;10.30;;;11.60;54.60;;;;;;5030987;28;20193;-59
2022/11/14 07:41:00;;;;;;;11.93;10.10;;;11.40;54.40;;;;;;5032658;28;20193;-58
2022/11/14 07:43:27;;;;;;;16.00;10.30;;;11.50;54.80;;;;;;5033022;28;20447;-58
2022/11/14 07:45:53;;;;;;;10.90;8.47;;;11.50;54.90;;;;;;5036925;28;20454;-58
2022/11/14 07:48:20;;;;;;;11.57;10.47;;;11.60;55.10;;;;;;5042342;28;20447;-58
2022/11/14 07:50:46;;;;;;;11.43;9.60;;;11.60;55.40;;;;;;5027813;28;20212;-58
2022/11/14 07:53:14;;;;;;;12.27;9.67;;;11.70;55.30;;;;;;5034103;28;20484;-58
2022/11/14 07:55:39;;;;;;;14.83;11.60;;;11.70;54.80;;;;;;5032401;28;20485;-58
2022/11/14 07:58:05;;;;;;;11.03;9.90;;;11.60;54.30;;;;;;5031824;28;20443;-58
2022/11/14 08:00:30;;;;;;;12.83;9.53;;;11.60;55.30;;;;;;5033847;28;20193;-58
2022/11/14 08:02:56;;;;;;;11.30;9.37;;;11.70;55.20;;;;;;5040413;28;20189;-58
2022/11/14 08:05:22;;;;;;;9.50;8.27;;;11.60;55.90;;;;;;5044634;28;20706;-58
2022/11/14 08:07:51;;;;;;;10.90;9.60;;;11.60;56.10;;;;;;5043820;28;20198;-57
2022/11/14 08:10:17;;;;;;;12.40;9.10;;;11.40;56.90;;;;;;5037844;28;20193;-58
2022/11/14 08:12:43;;;;;;;10.10;9.10;;;11.30;57.40;;;;;;5032070;28;20491;-58
2022/11/14 08:15:10;;;;;;;12.17;10.37;;;11.00;58.80;;;;;;5032477;28;20602;-58
2022/11/14 08:17:36;;;;;;;12.43;10.40;;;10.50;59.90;;;;;;5033554;28;20443;-58
2022/11/14 08:20:03;;;;;;;14.03;10.80;;;10.30;60.30;;;;;;5030510;28;20811;-58
2022/11/14 08:22:29;;;;;;;11.77;9.60;;;10.10;61.80;;;;;;5032767;28;20244;-58
2022/11/14 08:24:55;;;;;;;12.57;9.70;;;10.20;62.20;;;;;;5032442;28;20467;-58
2022/11/14 08:27:21;;;;;;;11.90;9.80;;;10.10;63.10;;;;;;5031803;28;20537;-58
2022/11/14 08:29:47;;;;;;;12.37;10.10;;;10.20;63.70;;;;;;5032568;28;20201;-58
2022/11/14 08:32:12;;;;;;;10.20;8.57;;;10.50;63.20;;;;;;5033500;28;20233;-57
2022/11/14 08:34:38;;;;;;;9.23;8.27;;;10.80;62.50;;;;;;5032839;28;20192;-58
2022/11/14 08:37:03;;;;;;;8.87;7.97;;;11.00;62.00;;;;;;5021830;28;20190;-58
2022/11/14 08:39:29;;;;;;;11.00;9.03;;;11.20;61.90;;;;;;5036145;28;20515;-58
2022/11/14 08:41:54;;;;;;;9.30;8.30;;;11.40;61.40;;;;;;5028453;28;20201;-58
2022/11/14 08:44:20;;;;;;;10.07;7.87;;;11.50;61.20;;;;;;5030079;28;20211;-58
2022/11/14 08:46:46;;;;;;;11.50;8.97;;;11.60;61.60;;;;;;5030716;28;20272;-57
2022/11/14 08:49:11;;;;;;;10.03;8.17;;;11.80;61.30;;;;;;5028419;28;20181;-58
2022/11/14 08:51:37;;;;;;;7.67;6.30;;;11.90;60.50;;;;;;5029518;28;20201;-58
2022/11/14 08:54:02;;;;;;;9.17;7.23;;;11.90;60.80;;;;;;5027912;28;20698;-57
2022/11/14 08:56:28;;;;;;;11.87;10.20;;;12.00;61.20;;;;;;5032941;28;20699;-58
2022/11/14 08:58:54;;;;;;;8.27;7.47;;;11.80;61.60;;;;;;5032692;28;20575;-58
2022/11/14 09:01:19;;;;;;;10.40;7.97;;;11.40;63.70;;;;;;5028906;28;20635;-58
2022/11/14 09:03:45;;;;;;;7.33;6.60;;;11.50;63.90;;;;;;5028750;28;20211;-58
2022/11/14 09:06:10;;;;;;;10.00;7.90;;;11.20;65.60;;;;;;5024051;28;20197;-58
2022/11/14 09:08:36;;;;;;;8.77;7.13;;;11.10;66.90;;;;;;5029075;28;20201;-58
2022/11/14 09:11:03;;;;;;;8.40;6.80;;;11.00;67.80;;;;;;5031169;28;20255;-58
2022/11/14 09:13:30;;;;;;;8.60;7.33;;;11.00;68.40;;;;;;5027027;28;20252;-58
2022/11/14 09:15:56;;;;;;;8.23;6.87;;;11.20;68.10;;;;;;5027116;28;20533;-58
2022/11/14 09:18:22;;;;;;;7.50;6.70;;;10.90;70.00;;;;;;5025153;28;20584;-58
2022/11/14 09:20:47;;;;;;;6.83;5.93;;;11.00;71.80;;;;;;5027432;28;20547;-58
2022/11/14 09:23:13;;;;;;;6.37;5.77;;;11.10;71.50;;;;;;5025776;28;20669;-58
2022/11/14 09:25:38;;;;;;;8.10;7.30;;;11.20;72.20;;;;;;5026583;28;20212;-59
2022/11/14 09:28:08;;;;;;;6.60;5.87;;;11.30;72.30;;;;;;5029960;28;20529;-58
2022/11/14 09:30:36;;;;;;;6.93;6.23;;;11.30;72.90;;;;;;5026558;28;20197;-58
2022/11/14 09:33:03;;;;;;;6.93;6.33;;;11.30;73.50;;;;;;5029839;28;20484;-58
2022/11/14 09:35:30;;;;;;;7.80;6.07;;;11.20;75.60;;;;;;5030012;28;20942;-58
2022/11/14 09:38:00;;;;;;;10.03;6.50;;;11.30;76.00;;;;;;5037292;28;20443;-58
2022/11/14 09:40:27;;;;;;;5.30;4.80;;;11.20;76.30;;;;;;5022228;28;20440;-58
2022/11/14 09:43:07;;;;;;;7.33;5.80;;;11.30;77.10;;;;;;5030058;28;20936;-58
2022/11/14 09:45:35;;;;;;;6.80;5.73;;;11.60;75.80;;;;;;5028964;28;20560;-58
2022/11/14 09:48:09;;;;;;;6.20;5.60;;;11.60;75.60;;;;;;5029191;28;20448;-57
2022/11/14 09:50:47;;;;;;;6.10;5.50;;;11.80;75.80;;;;;;5026350;28;20997;-58
2022/11/14 09:53:35;;;;;;;5.73;5.13;;;11.80;76.40;;;;;;5022830;28;20487;-58
2022/11/14 09:56:01;;;;;;;5.40;4.90;;;11.80;77.20;;;;;;5026594;28;20444;-58
2022/11/14 09:58:27;;;;;;;5.33;4.50;;;11.90;77.20;;;;;;5025887;28;20455;-58
2022/11/14 10:01:11;;;;;;;6.70;4.23;;;11.90;77.50;;;;;;5029494;28;20197;-57
2022/11/14 10:03:57;;;;;;;4.93;3.80;;;11.90;78.10;;;;;;5028868;28;21330;-58
2022/11/14 10:06:34;;;;;;;9.33;4.50;;;12.00;78.60;;;;;;5026281;28;20491;-58
2022/11/14 10:09:09;;;;;;;11.63;4.53;;;12.00;79.40;;;;;;5028576;28;20451;-58
2022/11/14 10:11:43;;;;;;;6.40;5.17;;;12.10;79.20;;;;;;5030367;28;20500;-58
2022/11/14 10:14:39;;;;;;;5.90;4.67;;;12.10;79.10;;;;;;5036738;28;20495;-58
2022/11/14 10:17:15;;;;;;;6.40;5.80;;;12.20;79.40;;;;;;5027238;28;20479;-58
2022/11/14 10:20:02;;;;;;;6.00;5.40;;;12.00;80.10;;;;;;5025575;28;20566;-58
2022/11/14 10:23:02;;;;;;;9.67;6.40;;;11.80;80.30;;;;;;5012079;28;20833;-58
2022/11/14 10:25:33;;;;;;;6.77;6.07;;;11.70;82.00;;;;;;5021007;28;20461;-58
2022/11/14 10:28:17;;;;;;;7.97;6.13;;;11.60;82.30;;;;;;5026812;28;20455;-58
2022/11/14 10:31:08;;;;;;;6.93;6.23;;;11.50;83.80;;;;;;5028024;28;20452;-58
2022/11/14 10:33:58;;;;;;;7.20;5.87;;;11.70;83.30;;;;;;5024037;28;20486;-59
2022/11/14 10:36:45;;;;;;;8.87;6.20;;;11.60;82.90;;;;;;5022947;28;20452;-58
2022/11/14 10:39:29;;;;;;;7.40;6.33;;;11.70;82.30;;;;;;5023155;28;20444;-58
2022/11/14 10:42:00;;;;;;;5.87;5.13;;;11.60;81.70;;;;;;5026612;28;20531;-59
2022/11/14 10:44:35;;;;;;;8.40;6.50;;;11.60;83.10;;;;;;5024793;28;20467;-59
2022/11/14 10:47:05;;;;;;;7.33;6.60;;;11.60;83.40;;;;;;5027096;28;20470;-59
2022/11/14 10:49:35;;;;;;;7.53;6.77;;;11.50;83.30;;;;;;5024044;28;20436;-58
2022/11/14 10:52:05;;;;;;;8.50;7.57;;;11.60;82.40;;;;;;5013498;28;20847;-59
2022/11/14 10:54:36;;;;;;;7.13;5.70;;;11.70;82.40;;;;;;5021802;28;20439;-59
2022/11/14 10:57:02;;;;;;;7.60;6.13;;;11.70;82.30;;;;;;5023797;28;20873;-57
2022/11/14 10:59:27;;;;;;;6.10;5.50;;;11.80;81.90;;;;;;5024825;28;20468;-58
2022/11/14 11:01:56;;;;;;;8.37;7.57;;;11.80;82.10;;;;;;5023814;28;20203;-58
2022/11/14 11:04:24;;;;;;;6.50;5.90;;;12.10;80.70;;;;;;5031365;28;20193;-58
2022/11/14 11:06:53;;;;;;;7.13;5.70;;;12.00;80.70;;;;;;5030563;28;20448;-58
2022/11/14 11:12:05;;;;;;;6.10;4.90;;;12.10;81.10;;;;;;5032167;28;20821;-58
2022/11/14 11:14:31;;;;;;;6.17;5.60;;;12.20;80.50;;;;;;5024352;28;20440;-58
2022/11/14 11:17:23;;;;;;;6.63;6.03;;;12.10;81.00;;;;;;5026822;28;20444;-58
2022/11/14 11:19:49;;;;;;;6.10;4.97;;;12.20;80.40;;;;;;5021786;28;21177;-58
2022/11/14 11:22:35;;;;;;;6.60;6.00;;;12.30;80.80;;;;;;5025596;28;20486;-58
2022/11/14 11:25:00;;;;;;;11.40;9.13;;;12.40;81.30;;;;;;5026704;28;20616;-58
2022/11/14 11:27:29;;;;;;;6.20;5.17;;;12.50;82.70;;;;;;5028081;28;20440;-58
2022/11/14 11:30:17;;;;;;;8.80;7.90;;;12.70;82.90;;;;;;5023433;28;20601;-58
2022/11/14 11:32:43;;;;;;;10.17;7.30;;;13.10;82.70;;;;;;5022598;28;20649;-58
2022/11/14 11:35:13;;;;;;;7.83;7.03;;;13.40;81.90;;;;;;5027591;28;20442;-58
2022/11/14 11:37:41;;;;;;;6.77;6.13;;;13.70;79.70;;;;;;5028386;28;20220;-58
2022/11/14 11:40:15;;;;;;;8.17;7.10;;;13.70;77.40;;;;;;5025663;28;20447;-58
2022/11/14 11:42:56;;;;;;;4.33;3.93;;;14.00;78.70;;;;;;5026220;28;20447;-59
2022/11/14 11:45:22;;;;;;;5.40;4.90;;;14.30;77.00;;;;;;5029167;28;20493;-58
2022/11/14 11:48:04;;;;;;;9.43;5.57;;;14.40;73.30;;;;;;5026187;28;20436;-59
2022/11/14 11:50:29;;;;;;;8.03;5.00;;;14.60;71.50;;;;;;5026307;28;20801;-58
2022/11/14 11:53:01;;;;;;;2.87;2.57;;;14.60;70.60;;;;;;5027562;28;20570;-58
2022/11/14 11:55:32;;;;;;;2.43;2.20;;;14.50;70.50;;;;;;5027791;28;20284;-58
2022/11/14 11:58:27;;;;;;;2.53;2.33;;;14.60;71.30;;;;;;5027187;28;20447;-58
2022/11/14 12:00:56;;;;;;;3.00;2.80;;;14.70;69.50;;;;;;5028115;28;20484;-58
2022/11/14 12:03:24;;;;;;;2.70;2.50;;;14.60;69.30;;;;;;5028685;28;20973;-58
2022/11/14 12:06:07;;;;;;;1.97;1.77;;;14.50;68.70;;;;;;5030094;28;20440;-59
2022/11/14 12:08:38;;;;;;;2.50;2.10;;;14.60;68.80;;;;;;5031726;28;20456;-58
2022/11/14 12:11:10;;;;;;;2.30;2.10;;;14.70;69.50;;;;;;5036329;28;20444;-58
2022/11/14 12:13:42;;;;;;;2.63;1.93;;;14.70;68.50;;;;;;5031450;28;20483;-58
2022/11/14 12:16:43;;;;;;;2.27;2.00;;;14.80;67.60;;;;;;5028544;28;20530;-58
2022/11/14 12:19:16;;;;;;;2.83;1.33;;;14.90;66.70;;;;;;5001784;28;20961;-58
2022/11/14 12:22:27;;;;;;;1.70;1.60;;;15.10;66.20;;;;;;5032020;28;20472;-58
2022/11/14 12:25:16;;;;;;;3.37;2.00;;;15.20;65.70;;;;;;5026305;28;20452;-58
2022/11/14 12:28:01;;;;;;;3.30;1.90;;;15.20;65.30;;;;;;5031053;28;20539;-58
2022/11/14 12:30:27;;;;;;;2.07;1.93;;;15.10;65.20;;;;;;5031556;28;20451;-59
2022/11/14 12:33:02;;;;;;;2.13;1.77;;;15.10;64.80;;;;;;5033412;28;20502;-58
2022/11/14 12:35:31;;;;;;;2.00;1.60;;;15.00;64.80;;;;;;5037279;28;20449;-58
2022/11/14 12:37:59;;;;;;;2.27;1.87;;;15.10;65.00;;;;;;5026627;28;20448;-61
2022/11/14 12:40:38;;;;;;;3.20;1.70;;;15.20;64.60;;;;;;5045116;28;20522;-59
2022/11/14 12:43:24;;;;;;;1.80;1.70;;;15.20;64.40;;;;;;5030853;28;20458;-58
2022/11/14 12:45:49;;;;;;;1.90;1.80;;;15.20;63.60;;;;;;5031986;28;20436;-58
2022/11/14 12:48:24;;;;;;;2.53;2.33;;;15.20;64.00;;;;;;5042555;28;20453;-58
2022/11/14 12:50:54;;;;;;;2.83;2.00;;;15.30;64.60;;;;;;5026041;28;20664;-58